createdAt,value
2023-03-23T15:58:20.725Z,99619.31
2023-03-23T16:00:48.420Z,99685.75
2023-03-23T16:03:24.323Z,99634.09
2023-03-23T16:05:51.351Z,99561.38
2023-03-23T16:08:17.956Z,99623.88
2023-03-23T16:10:44.574Z,99723.13
2023-03-23T16:13:11.507Z,99586.16
2023-03-23T16:15:38.008Z,99738.63
2023-03-23T16:18:04.458Z,99713.16
2023-03-23T16:20:33.020Z,99716.84
2023-03-23T16:23:00.292Z,99704.94
2023-03-23T16:25:27.085Z,99674.09
2023-03-23T16:27:54.450Z,99700.13
2023-03-23T16:30:24.727Z,99693.06
2023-03-23T16:32:51.800Z,99627.78
2023-03-23T16:35:18.910Z,99600.50
2023-03-23T16:37:47.110Z,99591.41
2023-03-23T16:40:15.069Z,99573.19
2023-03-23T16:42:44.438Z,99689.94
2023-03-23T16:45:12.287Z,99719.25
2023-03-23T16:47:39.769Z,99735.03
2023-03-23T16:50:08.140Z,99711.59
2023-03-23T16:52:34.608Z,99709.03
2023-03-23T16:55:14.504Z,99738.25
2023-03-23T16:57:42.087Z,99745.59
2023-03-23T17:00:15.257Z,99753.56
2023-03-23T17:02:43.617Z,99753.91
2023-03-23T17:05:14.127Z,99693.81
2023-03-23T17:07:41.795Z,99658.00
2023-03-23T17:10:10.045Z,99745.66
2023-03-23T17:12:36.831Z,99631.91
2023-03-23T17:15:04.250Z,99635.88
2023-03-23T17:17:30.957Z,99643.84
2023-03-23T17:19:57.434Z,99537.53
2023-03-23T17:22:24.723Z,99752.56
2023-03-23T17:24:51.896Z,99752.22
2023-03-23T17:27:20.482Z,99609.56
2023-03-23T17:29:46.934Z,99641.19
2023-03-23T17:32:13.943Z,99739.47
2023-03-23T17:34:40.858Z,99642.06
2023-03-23T17:37:08.065Z,99728.34
2023-03-23T17:39:42.317Z,99714.97
2023-03-23T17:42:10.322Z,99734.19
2023-03-23T17:44:40.492Z,99550.09
2023-03-23T17:47:06.932Z,99630.66
2023-03-23T17:49:33.366Z,99654.31
2023-03-23T17:52:00.286Z,99737.59
2023-03-23T17:54:29.508Z,99729.25
2023-03-23T17:56:58.402Z,99577.00
2023-03-23T17:59:25.946Z,99555.00
2023-03-23T18:01:53.632Z,99553.97
2023-03-23T18:04:20.214Z,99618.88
2023-03-23T18:06:50.650Z,99716.19
2023-03-23T18:09:17.014Z,99625.78
2023-03-23T18:11:43.796Z,99638.84
2023-03-23T18:14:10.279Z,99645.97
2023-03-23T18:16:37.041Z,99596.56
2023-03-23T18:19:03.743Z,99627.34
2023-03-23T18:21:30.245Z,99625.56
2023-03-23T18:23:59.916Z,99710.13
2023-03-23T18:26:27.721Z,99712.44
2023-03-23T18:28:54.993Z,99582.91
2023-03-23T18:31:22.121Z,99718.53
2023-03-23T18:33:51.030Z,99712.34
2023-03-23T18:36:20.553Z,99704.97
2023-03-23T18:38:47.714Z,99634.94
2023-03-23T18:41:15.508Z,99712.69
2023-03-23T18:43:42.065Z,99634.81
2023-03-23T18:46:08.754Z,99515.91
2023-03-23T18:48:36.141Z,99577.63
2023-03-23T18:51:03.104Z,99560.28
2023-03-23T18:53:29.926Z,99713.97
2023-03-23T18:56:10.083Z,99693.91
2023-03-23T18:58:37.202Z,99692.78
2023-03-23T19:01:09.557Z,99623.03
2023-03-23T19:03:37.788Z,99490.59
2023-03-23T19:06:04.739Z,99560.59
2023-03-23T19:08:31.964Z,99705.28
2023-03-23T19:11:01.657Z,99614.47
2023-03-23T19:13:29.865Z,99687.78
2023-03-23T19:15:56.678Z,99653.94
2023-03-23T19:18:23.317Z,99679.50
2023-03-23T19:21:13.670Z,99503.63
2023-03-23T19:23:41.319Z,99543.41
2023-03-23T19:26:07.803Z,99575.97
2023-03-23T19:31:07.602Z,99544.47
2023-03-23T19:33:40.320Z,99579.47
2023-03-23T19:36:12.261Z,99515.06
2023-03-23T19:38:39.969Z,99584.75
2023-03-23T19:41:06.831Z,99566.72
2023-03-23T19:43:33.873Z,99545.66
2023-03-23T19:46:00.727Z,99583.59
2023-03-23T19:48:28.075Z,99636.69
2023-03-23T19:50:57.745Z,99536.16
2023-03-23T19:53:26.498Z,99575.53
2023-03-23T19:55:53.228Z,99637.13
2023-03-23T19:58:20.481Z,99520.25
2023-03-23T20:00:48.581Z,99630.22
2023-03-23T20:03:15.952Z,99625.56
2023-03-23T20:05:42.860Z,99596.28
2023-03-23T20:08:09.951Z,99622.66
2023-03-23T20:10:37.329Z,99609.44
2023-03-23T20:13:05.246Z,99621.31
2023-03-23T20:15:33.062Z,99622.88
2023-03-23T20:18:00.893Z,99548.22
2023-03-23T20:20:28.114Z,99604.16
2023-03-23T20:22:56.545Z,99523.78
2023-03-23T20:25:28.176Z,99605.59
2023-03-23T20:27:57.863Z,99502.88
2023-03-23T20:30:24.539Z,99417.34
2023-03-23T20:32:53.526Z,99446.03
2023-03-23T20:35:22.568Z,99507.81
2023-03-23T20:37:50.590Z,99448.91
2023-03-23T20:40:17.341Z,99534.47
2023-03-23T20:42:44.066Z,99551.31
2023-03-23T20:45:14.938Z,99523.94
2023-03-23T20:47:44.199Z,99592.34
2023-03-23T20:50:12.359Z,99468.06
2023-03-23T20:52:40.597Z,99464.78
2023-03-23T20:55:07.556Z,99493.56
2023-03-23T20:57:34.518Z,99492.03
2023-03-23T21:00:02.407Z,99523.63
2023-03-23T21:02:29.949Z,99527.00
2023-03-23T21:04:58.146Z,99556.59
2023-03-23T21:07:27.300Z,99525.31
2023-03-23T21:09:53.730Z,99456.56
2023-03-23T21:12:20.121Z,99509.19
2023-03-23T21:14:46.592Z,99563.56
2023-03-23T21:17:13.071Z,99572.91
2023-03-23T21:19:39.926Z,99605.00
2023-03-23T21:22:06.932Z,99578.09
2023-03-23T21:24:37.412Z,99423.06
2023-03-23T21:27:04.291Z,99382.47
2023-03-23T21:29:31.113Z,99473.34
2023-03-23T21:34:27.320Z,99498.66
2023-03-23T21:36:53.707Z,99605.97
2023-03-23T21:39:21.113Z,99578.72
2023-03-23T21:41:49.616Z,99567.75
2023-03-23T21:44:18.118Z,99592.25
2023-03-23T21:46:44.521Z,99579.63
2023-03-23T21:49:14.206Z,99556.91
2023-03-23T21:51:41.806Z,99491.53
2023-03-23T21:54:09.175Z,99474.19
2023-03-23T21:56:35.801Z,99538.91
2023-03-23T21:59:03.555Z,99553.75
2023-03-23T22:01:30.307Z,99447.81
2023-03-23T22:03:57.944Z,99558.72
2023-03-23T22:06:26.807Z,99559.59
2023-03-23T22:08:54.039Z,99548.34
2023-03-23T22:11:26.508Z,99489.22
2023-03-23T22:13:54.711Z,99548.84
2023-03-23T22:16:22.480Z,99548.69
2023-03-23T22:18:51.151Z,99526.03
2023-03-23T22:21:19.736Z,99451.56
2023-03-23T22:23:46.620Z,99529.50
2023-03-23T22:26:14.604Z,99529.16
2023-03-23T22:28:41.961Z,99418.72
2023-03-23T22:31:16.969Z,99420.56
2023-03-23T22:33:43.480Z,99447.56
2023-03-23T22:36:10.664Z,99409.56
2023-03-23T22:38:40.292Z,99481.72
2023-03-23T22:41:08.053Z,99411.41
2023-03-23T22:43:36.061Z,99484.47
2023-03-23T22:46:03.239Z,99467.47
2023-03-23T22:48:29.894Z,99487.88
2023-03-23T22:50:56.331Z,99481.63
2023-03-23T22:53:22.804Z,99458.84
2023-03-23T22:55:52.844Z,99480.44
2023-03-23T22:58:19.222Z,99468.25
2023-03-23T23:00:48.896Z,99460.88
2023-03-23T23:03:16.546Z,99465.91
2023-03-23T23:05:45.822Z,99459.91
2023-03-23T23:08:14.134Z,99347.53
2023-03-23T23:10:44.618Z,99456.22
2023-03-23T23:13:12.692Z,99447.28
2023-03-23T23:15:43.549Z,99460.81
2023-03-23T23:18:10.262Z,99402.56
2023-03-23T23:20:37.537Z,99401.44
2023-03-23T23:23:04.691Z,99419.16
2023-03-23T23:25:32.338Z,99442.44
2023-03-23T23:28:00.430Z,99429.59
2023-03-23T23:30:27.649Z,99413.09
2023-03-23T23:32:55.006Z,99430.19
2023-03-23T23:35:22.166Z,99358.69
2023-03-23T23:37:49.040Z,99432.91
2023-03-23T23:40:17.248Z,99371.78
2023-03-23T23:42:46.151Z,99407.31
2023-03-23T23:45:13.958Z,99417.66
2023-03-23T23:47:40.858Z,99316.44
2023-03-23T23:50:09.363Z,99415.13
2023-03-23T23:52:37.293Z,99353.69
2023-03-23T23:55:06.590Z,99401.88
2023-03-23T23:57:33.590Z,99363.53
